createdAt,value
2022-09-01T00:01:21.367Z,3.70
2022-09-01T00:01:55.403Z,3.50
2022-09-01T00:02:28.651Z,3.20
2022-09-01T00:03:01.883Z,3.60
2022-09-01T00:03:35.586Z,3.40
2022-09-01T00:04:13.804Z,3.30
2022-09-01T00:04:47.886Z,3.20
2022-09-01T00:05:21.616Z,3.90
2022-09-01T00:05:57.459Z,3.40
2022-09-01T00:06:33.884Z,3.40
2022-09-01T00:07:08.482Z,3.70
2022-09-01T00:07:41.752Z,3.40
2022-09-01T00:08:18.461Z,4.00
2022-09-01T00:08:56.286Z,3.90
2022-09-01T00:09:29.606Z,3.40
2022-09-01T00:10:07.188Z,3.80
2022-09-01T00:10:40.728Z,3.40
2022-09-01T00:11:13.849Z,3.30
2022-09-01T00:11:51.220Z,3.50
2022-09-01T00:12:25.959Z,3.50
2022-09-01T00:12:59.786Z,3.40
2022-09-01T00:13:34.299Z,3.30
2022-09-01T00:14:09.813Z,3.10
2022-09-01T00:15:02.792Z,3.80
2022-09-01T00:15:36.821Z,3.70
2022-09-01T00:16:10.338Z,3.20
2022-09-01T00:16:43.742Z,3.40
2022-09-01T00:17:17.243Z,3.40
2022-09-01T00:17:50.327Z,3.50
2022-09-01T00:18:23.596Z,3.30
2022-09-01T00:18:57.163Z,3.60
2022-09-01T00:19:30.979Z,3.60
2022-09-01T00:20:05.577Z,3.80
2022-09-01T00:20:38.662Z,3.60
2022-09-01T00:21:12.696Z,3.20
2022-09-01T00:21:46.810Z,3.90
2022-09-01T00:22:19.956Z,3.90
2022-09-01T00:22:53.186Z,3.70
2022-09-01T00:23:29.988Z,3.40
2022-09-01T00:24:04.495Z,4.00
2022-09-01T00:24:37.723Z,3.90
2022-09-01T00:25:10.929Z,3.80
2022-09-01T00:25:44.320Z,4.20
2022-09-01T00:26:17.972Z,3.40
2022-09-01T00:26:51.228Z,3.40
2022-09-01T00:27:27.973Z,3.50
2022-09-01T00:28:05.446Z,3.40
2022-09-01T00:28:39.307Z,3.70
2022-09-01T00:29:12.665Z,3.70
2022-09-01T00:29:45.820Z,3.40
2022-09-01T00:30:19.696Z,3.10
2022-09-01T00:30:53.908Z,3.10
2022-09-01T00:31:28.766Z,3.60
2022-09-01T00:32:02.011Z,3.60
2022-09-01T00:32:35.462Z,3.20
2022-09-01T00:33:08.597Z,3.70
2022-09-01T00:33:42.248Z,3.30
2022-09-01T00:34:16.123Z,4.20
2022-09-01T00:34:50.391Z,3.70
2022-09-01T00:35:23.719Z,3.30
2022-09-01T00:35:56.924Z,3.20
2022-09-01T00:36:30.551Z,3.50
2022-09-01T00:37:03.868Z,3.60
2022-09-01T00:37:37.161Z,3.60
2022-09-01T00:38:10.602Z,3.20
2022-09-01T00:38:44.352Z,3.20
2022-09-01T00:39:17.476Z,3.20
2022-09-01T00:39:50.650Z,3.30
2022-09-01T00:40:23.882Z,3.50
2022-09-01T00:40:57.117Z,3.40
2022-09-01T00:41:33.650Z,3.80
2022-09-01T00:42:07.278Z,3.50
2022-09-01T00:42:41.778Z,3.40
2022-09-01T00:43:23.318Z,4.00
2022-09-01T00:44:06.644Z,3.80
2022-09-01T00:44:39.924Z,3.70
2022-09-01T00:45:13.770Z,3.40
2022-09-01T00:45:47.183Z,3.10
2022-09-01T00:46:22.731Z,3.20
2022-09-01T00:46:57.389Z,3.10
2022-09-01T00:47:30.654Z,3.30
2022-09-01T00:48:06.068Z,3.30
2022-09-01T00:48:40.242Z,3.70
2022-09-01T00:49:21.000Z,3.30
2022-09-01T00:49:54.370Z,3.10
2022-09-01T00:50:27.685Z,3.00
2022-09-01T00:51:02.243Z,3.60
2022-09-01T00:51:38.858Z,3.50
2022-09-01T00:52:21.369Z,3.20
2022-09-01T00:52:55.746Z,3.40
2022-09-01T00:53:28.998Z,3.10
2022-09-01T00:54:03.547Z,3.60
2022-09-01T00:54:41.703Z,3.20
2022-09-01T00:55:29.662Z,3.30
2022-09-01T00:56:04.268Z,3.40
2022-09-01T00:56:40.434Z,3.30
2022-09-01T00:57:19.852Z,3.30
2022-09-01T00:57:53.406Z,3.20
2022-09-01T00:58:27.367Z,3.30
2022-09-01T00:59:01.900Z,3.50
2022-09-01T00:59:39.683Z,3.70
2022-09-01T01:00:26.160Z,3.10
2022-09-01T01:00:59.802Z,3.60
2022-09-01T01:01:35.935Z,3.10
2022-09-01T01:02:11.466Z,3.20
2022-09-01T01:02:45.419Z,3.20
2022-09-01T01:03:18.731Z,3.50
2022-09-01T01:03:51.867Z,3.40
2022-09-01T01:04:25.284Z,3.30
2022-09-01T01:04:59.720Z,3.60
2022-09-01T01:05:36.723Z,3.10
2022-09-01T01:06:10.420Z,3.70
2022-09-01T01:06:50.807Z,3.60
2022-09-01T01:07:24.827Z,3.60
2022-09-01T01:07:58.000Z,3.40
2022-09-01T01:08:37.147Z,3.40
2022-09-01T01:09:10.490Z,3.20
2022-09-01T01:09:46.504Z,3.30
2022-09-01T01:10:22.806Z,3.10
2022-09-01T01:10:55.976Z,4.00
2022-09-01T01:11:32.659Z,3.20
2022-09-01T01:12:08.070Z,3.40
2022-09-01T01:12:43.385Z,2.90
2022-09-01T01:13:17.559Z,3.00
2022-09-01T01:13:56.142Z,2.70
2022-09-01T01:14:32.555Z,3.30
2022-09-01T01:15:09.037Z,3.30
2022-09-01T01:15:44.364Z,2.80
2022-09-01T01:16:18.099Z,3.10
2022-09-01T01:16:52.661Z,3.60
2022-09-01T01:17:25.960Z,3.40
2022-09-01T01:17:59.140Z,3.30
2022-09-01T01:18:32.169Z,3.80
2022-09-01T01:19:06.976Z,3.50
2022-09-01T01:20:06.371Z,3.40
2022-09-01T01:20:58.651Z,3.40
2022-09-01T01:22:03.284Z,3.60
2022-09-01T01:23:02.922Z,2.80
2022-09-01T01:23:55.945Z,2.90
2022-09-01T01:24:34.444Z,3.30
2022-09-01T01:25:08.181Z,3.40
2022-09-01T01:25:45.666Z,3.50
2022-09-01T01:26:18.900Z,2.90
2022-09-01T01:26:53.395Z,2.70
2022-09-01T01:27:32.188Z,3.80
2022-09-01T01:28:32.178Z,3.10
2022-09-01T01:29:06.839Z,2.90
2022-09-01T01:29:40.135Z,3.20
2022-09-01T01:30:15.016Z,3.00
2022-09-01T01:30:52.719Z,3.70
2022-09-01T01:31:26.151Z,3.10
2022-09-01T01:32:00.894Z,3.20
2022-09-01T01:32:34.024Z,3.40
2022-09-01T01:33:08.093Z,3.00
2022-09-01T01:33:48.207Z,3.20
2022-09-01T01:34:23.025Z,2.90
2022-09-01T01:34:56.775Z,3.60
2022-09-01T01:35:32.150Z,3.10
2022-09-01T01:36:08.151Z,3.30
2022-09-01T01:36:41.958Z,3.40
2022-09-01T01:37:15.391Z,3.40
2022-09-01T01:37:49.379Z,2.70
2022-09-01T01:38:23.209Z,3.30
2022-09-01T01:39:03.346Z,3.10
2022-09-01T01:39:40.979Z,3.30
2022-09-01T01:40:16.616Z,3.30
2022-09-01T01:40:52.046Z,3.00
2022-09-01T01:41:25.888Z,3.30
2022-09-01T01:41:59.297Z,3.00
2022-09-01T01:42:34.037Z,3.20
2022-09-01T01:43:07.512Z,2.80
2022-09-01T01:43:42.133Z,3.10
2022-09-01T01:44:19.160Z,2.90
2022-09-01T01:44:52.706Z,2.90
2022-09-01T01:45:26.115Z,3.20
2022-09-01T01:46:02.970Z,3.20
2022-09-01T01:46:37.587Z,3.30
2022-09-01T01:47:13.641Z,3.20
2022-09-01T01:47:53.633Z,3.70
2022-09-01T01:48:28.469Z,3.20
2022-09-01T01:49:05.272Z,2.90
2022-09-01T01:49:40.261Z,3.20
2022-09-01T01:50:15.182Z,2.90
2022-09-01T01:50:49.687Z,3.20
2022-09-01T01:51:28.732Z,2.50
2022-09-01T01:52:02.551Z,2.70
2022-09-01T01:52:36.784Z,2.60
2022-09-01T01:53:17.613Z,2.90
2022-09-01T01:53:53.011Z,3.00
2022-09-01T01:54:31.507Z,3.00
2022-09-01T01:55:11.140Z,3.10
2022-09-01T01:55:44.353Z,2.70
2022-09-01T01:56:18.664Z,3.10
2022-09-01T01:56:51.849Z,3.20
2022-09-01T01:57:25.108Z,2.80
2022-09-01T01:58:00.214Z,3.10
2022-09-01T01:58:35.203Z,2.90
2022-09-01T01:59:12.114Z,2.70
2022-09-01T01:59:46.418Z,3.30
2022-09-01T02:00:26.053Z,2.70
2022-09-01T02:01:04.159Z,2.90
2022-09-01T02:01:38.625Z,2.90
2022-09-01T02:02:13.462Z,3.10
2022-09-01T02:02:52.563Z,2.80
2022-09-01T02:03:33.016Z,2.90
2022-09-01T02:04:06.354Z,2.80
2022-09-01T02:04:41.017Z,2.50
2022-09-01T02:05:17.232Z,2.70
2022-09-01T02:05:53.151Z,2.70
2022-09-01T02:06:27.443Z,2.40
2022-09-01T02:07:00.835Z,3.50
2022-09-01T02:07:34.048Z,2.60
2022-09-01T02:08:10.409Z,2.70
2022-09-01T02:08:43.999Z,2.60
2022-09-01T02:09:20.153Z,3.10
2022-09-01T02:09:53.415Z,2.70
2022-09-01T02:10:33.407Z,2.80
2022-09-01T02:11:08.241Z,3.10
2022-09-01T02:11:42.079Z,3.00
2022-09-01T02:12:19.392Z,3.00
2022-09-01T02:12:53.052Z,2.80
2022-09-01T02:13:30.704Z,3.00
2022-09-01T02:14:05.845Z,2.80
2022-09-01T02:14:39.018Z,2.60
2022-09-01T02:15:13.353Z,2.80
2022-09-01T02:15:49.654Z,3.00
2022-09-01T02:16:24.717Z,3.00
2022-09-01T02:16:57.848Z,3.00
2022-09-01T02:17:31.024Z,2.90
2022-09-01T02:18:05.362Z,2.60
2022-09-01T02:18:42.977Z,2.80
2022-09-01T02:19:21.316Z,2.80
2022-09-01T02:19:58.176Z,2.70
2022-09-01T02:20:33.213Z,2.90
2022-09-01T02:21:15.149Z,2.50
2022-09-01T02:21:56.421Z,3.30
2022-09-01T02:22:29.905Z,3.20
2022-09-01T02:23:09.542Z,2.70
2022-09-01T02:23:42.912Z,2.60
2022-09-01T02:24:16.499Z,2.70
2022-09-01T02:24:52.809Z,2.90
2022-09-01T02:25:28.447Z,2.70
2022-09-01T02:26:16.100Z,2.70
2022-09-01T02:26:50.665Z,2.70
2022-09-01T02:27:30.035Z,2.90
2022-09-01T02:28:04.477Z,2.90
2022-09-01T02:28:42.840Z,2.60
2022-09-01T02:29:21.232Z,2.60
2022-09-01T02:29:55.667Z,2.80
2022-09-01T02:30:29.363Z,2.80
2022-09-01T02:31:04.523Z,2.80
2022-09-01T02:31:40.972Z,2.70
2022-09-01T02:32:14.120Z,2.40
2022-09-01T02:32:47.465Z,3.00
2022-09-01T02:33:22.850Z,2.70
2022-09-01T02:33:56.009Z,2.80
2022-09-01T02:34:29.338Z,2.80
2022-09-01T02:35:03.038Z,2.60
2022-09-01T02:35:38.194Z,2.70
2022-09-01T02:36:17.673Z,3.00
2022-09-01T02:36:53.415Z,2.80
2022-09-01T02:37:26.688Z,3.10
2022-09-01T02:38:01.179Z,2.80
2022-09-01T02:38:34.831Z,2.90
2022-09-01T02:39:08.035Z,3.00
2022-09-01T02:39:41.340Z,3.20
2022-09-01T02:40:16.306Z,2.60
2022-09-01T02:40:49.526Z,2.60
2022-09-01T02:41:25.422Z,3.10
2022-09-01T02:41:58.985Z,2.70
2022-09-01T02:42:32.465Z,2.60
2022-09-01T02:43:06.293Z,2.80
2022-09-01T02:43:40.302Z,3.40
2022-09-01T02:44:15.024Z,2.70
2022-09-01T02:44:48.189Z,2.70
2022-09-01T02:45:21.428Z,2.80
2022-09-01T02:46:00.113Z,3.00
2022-09-01T02:46:34.955Z,3.20
2022-09-01T02:47:10.077Z,2.90
2022-09-01T02:47:46.902Z,3.00
2022-09-01T02:48:24.130Z,2.50
2022-09-01T02:48:57.693Z,2.10
2022-09-01T02:49:31.672Z,2.80
2022-09-01T02:50:05.254Z,2.60
2022-09-01T02:50:39.780Z,3.10
2022-09-01T02:51:18.070Z,3.00
2022-09-01T02:51:54.418Z,2.30
2022-09-01T02:52:29.924Z,2.50
2022-09-01T02:53:09.960Z,2.70
2022-09-01T02:53:48.900Z,2.90
2022-09-01T02:54:24.778Z,2.70
2022-09-01T02:54:58.826Z,2.40
2022-09-01T02:55:31.876Z,2.90
2022-09-01T02:56:14.068Z,3.50
2022-09-01T02:56:48.496Z,2.30
2022-09-01T02:57:23.230Z,2.90
2022-09-01T02:57:57.397Z,3.00
2022-09-01T02:58:34.600Z,2.90
2022-09-01T02:59:13.453Z,2.40
2022-09-01T02:59:47.796Z,2.60
2022-09-01T03:00:23.137Z,2.80
2022-09-01T03:00:57.949Z,2.90
2022-09-01T03:01:33.696Z,2.90
2022-09-01T03:02:08.712Z,3.10
2022-09-01T03:02:43.292Z,2.50
2022-09-01T03:03:19.928Z,3.00
2022-09-01T03:03:57.826Z,2.70
2022-09-01T03:04:34.216Z,2.60
2022-09-01T03:05:07.958Z,2.70
2022-09-01T03:05:41.300Z,2.70
2022-09-01T03:06:15.132Z,2.60
2022-09-01T03:06:49.970Z,3.10
2022-09-01T03:07:25.689Z,2.50
2022-09-01T03:08:02.641Z,2.50
2022-09-01T03:08:39.858Z,2.90
2022-09-01T03:09:16.058Z,2.60
2022-09-01T03:09:49.347Z,2.80
2022-09-01T03:10:33.012Z,2.50
2022-09-01T03:11:13.199Z,3.10
2022-09-01T03:11:50.854Z,2.50
2022-09-01T03:12:24.878Z,3.20
2022-09-01T03:13:02.607Z,2.90
2022-09-01T03:13:36.243Z,3.10
2022-09-01T03:14:10.092Z,3.20
2022-09-01T03:14:43.323Z,3.00
2022-09-01T03:15:16.382Z,2.90
2022-09-01T03:15:51.693Z,2.60
2022-09-01T03:16:25.006Z,2.90
2022-09-01T03:17:00.872Z,2.70
2022-09-01T03:17:35.326Z,2.60
2022-09-01T03:18:10.669Z,2.30
2022-09-01T03:18:43.928Z,3.10
2022-09-01T03:19:19.425Z,3.00
2022-09-01T03:19:52.542Z,2.90
2022-09-01T03:20:25.881Z,2.90
2022-09-01T03:20:59.272Z,2.50
2022-09-01T03:21:32.779Z,2.60
2022-09-01T03:22:06.343Z,3.00
2022-09-01T03:22:39.871Z,2.60
2022-09-01T03:23:19.206Z,2.80
2022-09-01T03:23:53.874Z,2.40
2022-09-01T03:24:27.125Z,2.80
2022-09-01T03:25:00.506Z,2.50
2022-09-01T03:25:34.789Z,2.30
2022-09-01T03:26:08.057Z,2.80
2022-09-01T03:26:43.279Z,2.60
2022-09-01T03:27:16.414Z,2.50
2022-09-01T03:27:49.498Z,2.70
2022-09-01T03:28:22.747Z,2.50
2022-09-01T03:28:56.865Z,2.50
2022-09-01T03:29:30.045Z,2.90
2022-09-01T03:30:03.460Z,2.40
2022-09-01T03:30:41.008Z,2.80
2022-09-01T03:31:14.701Z,2.70
2022-09-01T03:31:48.273Z,3.20
2022-09-01T03:32:22.194Z,2.50
2022-09-01T03:32:55.441Z,2.40
2022-09-01T03:33:29.177Z,3.00
2022-09-01T03:34:03.963Z,2.80
2022-09-01T03:34:37.424Z,2.90
2022-09-01T03:35:10.988Z,2.50
2022-09-01T03:35:45.361Z,2.80
2022-09-01T03:36:21.579Z,2.70
2022-09-01T03:36:56.601Z,2.90
2022-09-01T03:37:29.807Z,2.80
2022-09-01T03:38:04.390Z,2.80
2022-09-01T03:38:37.847Z,3.20
2022-09-01T03:39:16.378Z,2.40
2022-09-01T03:39:50.348Z,2.40
2022-09-01T03:40:23.760Z,2.50
2022-09-01T03:41:02.887Z,2.70
2022-09-01T03:41:37.201Z,2.50
2022-09-01T03:42:19.821Z,2.50
2022-09-01T03:42:54.106Z,2.70
2022-09-01T03:43:34.506Z,3.00
2022-09-01T03:44:11.010Z,2.30
2022-09-01T03:44:44.616Z,2.30
2022-09-01T03:45:21.643Z,2.80
2022-09-01T03:46:00.048Z,2.60
2022-09-01T03:46:36.958Z,2.60
2022-09-01T03:47:15.520Z,2.40
2022-09-01T03:47:48.838Z,2.90
2022-09-01T03:48:25.375Z,2.60
2022-09-01T03:49:03.458Z,2.90
2022-09-01T03:49:38.030Z,3.00
2022-09-01T03:50:20.909Z,2.70
2022-09-01T03:50:56.052Z,3.00
2022-09-01T03:51:31.373Z,2.80
2022-09-01T03:52:04.536Z,2.80
2022-09-01T03:52:41.359Z,2.90
2022-09-01T03:53:20.383Z,2.60
2022-09-01T03:53:55.281Z,3.30
2022-09-01T03:54:30.756Z,2.60
2022-09-01T03:55:04.451Z,2.80
2022-09-01T03:55:38.576Z,3.00
2022-09-01T03:56:12.072Z,2.60
2022-09-01T03:56:45.756Z,2.50
2022-09-01T03:57:19.297Z,2.70
2022-09-01T03:58:01.361Z,2.80
2022-09-01T03:58:34.683Z,2.70
2022-09-01T03:59:08.507Z,2.80
2022-09-01T03:59:44.411Z,2.60
2022-09-01T04:00:23.377Z,2.70
2022-09-01T04:01:01.020Z,2.70
2022-09-01T04:01:44.083Z,2.30
2022-09-01T04:02:17.416Z,2.70
2022-09-01T04:02:57.237Z,2.50
2022-09-01T04:03:36.118Z,3.00
2022-09-01T04:04:15.183Z,2.80
2022-09-01T04:04:48.401Z,2.80
2022-09-01T04:05:31.628Z,3.00
2022-09-01T04:06:04.856Z,2.70
2022-09-01T04:06:38.122Z,2.60
2022-09-01T04:07:15.510Z,2.80
2022-09-01T04:07:52.726Z,2.70
2022-09-01T04:08:32.616Z,3.20
2022-09-01T04:09:06.480Z,3.00
2022-09-01T04:09:40.194Z,2.60
2022-09-01T04:10:14.229Z,2.70
2022-09-01T04:10:54.368Z,3.30
2022-09-01T04:11:28.445Z,3.50
2022-09-01T04:12:01.597Z,3.30
2022-09-01T04:12:35.272Z,3.20
2022-09-01T04:13:12.067Z,3.00
2022-09-01T04:13:47.583Z,3.20
2022-09-01T04:14:21.101Z,3.10
2022-09-01T04:14:54.447Z,2.70
2022-09-01T04:15:29.132Z,2.60
2022-09-01T04:16:03.130Z,3.10
2022-09-01T04:16:55.871Z,2.60
2022-09-01T04:17:47.598Z,2.30
2022-09-01T04:18:21.802Z,2.50
2022-09-01T04:18:55.026Z,2.70
2022-09-01T04:19:30.948Z,2.70
2022-09-01T04:20:09.175Z,2.70
2022-09-01T04:20:49.857Z,2.20
2022-09-01T04:21:23.222Z,2.40
2022-09-01T04:22:00.531Z,2.50
2022-09-01T04:22:35.898Z,2.40
2022-09-01T04:23:12.751Z,2.70
2022-09-01T04:23:47.263Z,2.30
2022-09-01T04:24:21.481Z,2.50
2022-09-01T04:24:54.572Z,2.90
2022-09-01T04:25:27.930Z,2.50
2022-09-01T04:26:09.996Z,3.40
2022-09-01T04:26:46.299Z,2.70
2022-09-01T04:27:25.050Z,3.20
2022-09-01T04:27:58.782Z,2.70
2022-09-01T04:28:36.119Z,2.80
2022-09-01T04:29:11.072Z,2.80
2022-09-01T04:29:48.332Z,2.60
2022-09-01T04:30:27.177Z,2.70
2022-09-01T04:31:06.049Z,3.30
2022-09-01T04:31:40.983Z,2.90
2022-09-01T04:32:16.121Z,2.50
2022-09-01T04:32:49.551Z,2.80
2022-09-01T04:33:24.856Z,2.90
2022-09-01T04:33:58.577Z,2.70
2022-09-01T04:34:38.948Z,2.90
2022-09-01T04:35:17.324Z,2.90
2022-09-01T04:35:55.287Z,2.80
2022-09-01T04:36:34.384Z,2.70
2022-09-01T04:37:15.220Z,2.60
2022-09-01T04:37:48.734Z,3.00
2022-09-01T04:38:23.570Z,2.80
2022-09-01T04:39:02.129Z,2.80
2022-09-01T04:39:36.832Z,2.50
2022-09-01T04:40:11.092Z,2.60
2022-09-01T04:40:44.550Z,2.40
2022-09-01T04:41:17.914Z,3.00
2022-09-01T04:41:51.459Z,3.00
2022-09-01T04:42:32.825Z,3.30
2022-09-01T04:43:07.828Z,2.70
2022-09-01T04:43:41.080Z,2.80
2022-09-01T04:44:17.049Z,2.80
2022-09-01T04:44:54.868Z,2.90
2022-09-01T04:45:29.177Z,2.90
2022-09-01T04:46:03.543Z,2.70
2022-09-01T04:46:42.496Z,3.20
2022-09-01T04:47:17.370Z,2.60
2022-09-01T04:47:51.242Z,3.10
2022-09-01T04:48:24.484Z,2.90
2022-09-01T04:48:57.997Z,2.50
2022-09-01T04:49:34.222Z,2.60
2022-09-01T04:50:14.849Z,2.40
2022-09-01T04:50:52.298Z,2.70
2022-09-01T04:51:29.118Z,2.30
2022-09-01T04:52:02.549Z,3.00
2022-09-01T04:52:36.183Z,2.60
2022-09-01T04:53:12.369Z,2.70
2022-09-01T04:53:49.030Z,3.00
2022-09-01T04:54:23.505Z,2.90
2022-09-01T04:54:57.084Z,3.00
2022-09-01T04:55:31.020Z,2.90
2022-09-01T04:56:10.123Z,2.80
2022-09-01T04:56:46.183Z,2.80
2022-09-01T04:57:19.391Z,3.30
2022-09-01T04:57:53.551Z,3.00
2022-09-01T04:58:27.580Z,2.90
2022-09-01T04:59:01.093Z,3.50
2022-09-01T04:59:34.369Z,3.50
2022-09-01T05:00:22.712Z,3.70
2022-09-01T05:00:56.339Z,3.80
2022-09-01T05:01:29.615Z,3.80
2022-09-01T05:02:03.125Z,3.40
2022-09-01T05:02:37.690Z,3.80
2022-09-01T05:03:11.521Z,3.10
2022-09-01T05:03:46.121Z,3.50
2022-09-01T05:04:23.214Z,3.40
2022-09-01T05:04:58.864Z,2.90
2022-09-01T05:05:44.459Z,2.90
2022-09-01T05:06:20.387Z,3.20
2022-09-01T05:07:00.026Z,3.20
2022-09-01T05:07:34.098Z,3.30
2022-09-01T05:08:14.032Z,2.50
2022-09-01T05:08:58.179Z,3.00
2022-09-01T05:09:38.296Z,3.20
2022-09-01T05:10:12.356Z,3.10
2022-09-01T05:10:50.608Z,3.30
2022-09-01T05:11:24.358Z,3.20
2022-09-01T05:12:02.055Z,3.00
2022-09-01T05:12:36.308Z,3.10
2022-09-01T05:13:13.104Z,3.40
2022-09-01T05:13:48.820Z,3.00
2022-09-01T05:14:23.087Z,3.30
2022-09-01T05:14:56.519Z,3.40
2022-09-01T05:15:31.007Z,3.60
2022-09-01T05:16:13.467Z,3.70
2022-09-01T05:16:47.577Z,4.10
2022-09-01T05:17:22.043Z,3.10
2022-09-01T05:17:56.769Z,3.50
2022-09-01T05:18:32.728Z,2.90
2022-09-01T05:19:06.819Z,3.60
2022-09-01T05:19:43.442Z,3.10
2022-09-01T05:20:16.799Z,3.10
2022-09-01T05:20:52.665Z,3.50
2022-09-01T05:21:27.139Z,3.70
2022-09-01T05:22:00.760Z,3.20
2022-09-01T05:22:34.382Z,3.30
2022-09-01T05:23:08.893Z,3.20
2022-09-01T05:23:46.573Z,3.20
2022-09-01T05:24:22.062Z,3.60
2022-09-01T05:24:55.648Z,3.20
2022-09-01T05:25:28.769Z,3.10
2022-09-01T05:26:04.354Z,3.40
2022-09-01T05:26:41.107Z,3.60
2022-09-01T05:27:14.891Z,3.60
2022-09-01T05:27:51.825Z,3.80
2022-09-01T05:28:25.560Z,3.40
2022-09-01T05:29:02.282Z,3.10
2022-09-01T05:29:38.252Z,3.40
2022-09-01T05:30:12.145Z,3.20
2022-09-01T05:30:48.696Z,3.60
2022-09-01T05:31:23.596Z,3.30
2022-09-01T05:31:59.057Z,3.90
2022-09-01T05:32:33.862Z,3.50
2022-09-01T05:33:12.060Z,4.10
2022-09-01T05:33:48.584Z,4.40
2022-09-01T05:34:27.392Z,4.10
2022-09-01T05:35:02.454Z,4.00
2022-09-01T05:35:37.345Z,3.40
2022-09-01T05:36:11.937Z,3.10
2022-09-01T05:36:50.933Z,3.80
2022-09-01T05:37:24.078Z,3.20
2022-09-01T05:37:59.733Z,3.70
2022-09-01T05:38:34.480Z,3.60
2022-09-01T05:39:08.096Z,3.80
2022-09-01T05:39:41.290Z,3.60
2022-09-01T05:40:16.668Z,3.40
2022-09-01T05:41:03.966Z,3.60
2022-09-01T05:41:37.452Z,3.60
2022-09-01T05:42:10.741Z,3.60
2022-09-01T05:42:44.616Z,3.60
2022-09-01T05:43:17.981Z,3.90
2022-09-01T05:43:57.828Z,3.80
2022-09-01T05:44:33.866Z,4.00
2022-09-01T05:45:08.344Z,4.10
2022-09-01T05:46:05.694Z,3.80
2022-09-01T05:46:40.181Z,3.60
2022-09-01T05:47:20.533Z,3.40
2022-09-01T05:47:55.184Z,3.80
2022-09-01T05:48:32.248Z,3.90
2022-09-01T05:49:07.468Z,4.50
2022-09-01T05:49:40.917Z,3.80
2022-09-01T05:50:18.477Z,4.00
2022-09-01T05:50:59.993Z,4.20
2022-09-01T05:51:45.823Z,4.20
2022-09-01T05:52:26.637Z,4.20
2022-09-01T05:53:00.089Z,4.20
2022-09-01T05:53:34.454Z,3.80
2022-09-01T05:54:09.557Z,4.00
2022-09-01T05:54:43.315Z,3.60
2022-09-01T05:55:16.958Z,3.30
2022-09-01T05:55:51.173Z,3.70
2022-09-01T05:56:26.580Z,3.60
2022-09-01T05:57:17.401Z,3.50
2022-09-01T05:57:54.248Z,3.90
2022-09-01T05:59:22.535Z,4.60
2022-09-01T05:59:23.737Z,4.10
2022-09-01T05:59:57.392Z,3.90
2022-09-01T06:00:35.020Z,3.80
2022-09-01T06:01:09.127Z,3.80
2022-09-01T06:01:46.858Z,3.70
2022-09-01T06:02:24.073Z,3.50
2022-09-01T06:02:59.157Z,3.90
2022-09-01T06:03:38.267Z,3.50
2022-09-01T06:04:11.881Z,4.10
2022-09-01T06:04:45.138Z,3.70
2022-09-01T06:05:18.429Z,4.70
2022-09-01T06:05:53.365Z,3.70
2022-09-01T06:06:43.765Z,3.70
2022-09-01T06:07:25.292Z,4.50
2022-09-01T06:07:58.725Z,4.30
2022-09-01T06:08:31.944Z,4.30
2022-09-01T06:09:07.934Z,4.30
2022-09-01T06:09:43.982Z,3.40
2022-09-01T06:10:17.216Z,3.80
2022-09-01T06:10:50.591Z,4.10
2022-09-01T06:11:25.096Z,3.90
2022-09-01T06:11:58.340Z,4.40
2022-09-01T06:12:31.637Z,3.70
2022-09-01T06:13:06.343Z,4.10
2022-09-01T06:13:47.621Z,3.80
2022-09-01T06:14:20.864Z,3.70
2022-09-01T06:14:55.730Z,4.00
2022-09-01T06:15:31.135Z,4.10
2022-09-01T06:16:05.156Z,3.80
2022-09-01T06:16:38.684Z,3.90
2022-09-01T06:17:16.865Z,4.00
2022-09-01T06:17:50.344Z,3.90
2022-09-01T06:18:23.811Z,4.00
2022-09-01T06:18:58.157Z,4.10
2022-09-01T06:19:37.186Z,3.80
2022-09-01T06:20:11.077Z,3.70
2022-09-01T06:20:47.164Z,4.00
2022-09-01T06:21:22.823Z,5.10
2022-09-01T06:21:57.150Z,4.10
2022-09-01T06:22:30.350Z,3.80
2022-09-01T06:23:04.021Z,4.00
2022-09-01T06:23:37.230Z,4.00
2022-09-01T06:24:10.314Z,3.70
2022-09-01T06:24:44.861Z,3.60
2022-09-01T06:25:19.828Z,4.40
2022-09-01T06:25:53.101Z,4.10
2022-09-01T06:26:32.172Z,4.10
2022-09-01T06:27:09.310Z,4.00
2022-09-01T06:27:45.016Z,3.80
2022-09-01T06:28:21.558Z,4.40
2022-09-01T06:29:05.105Z,3.90
2022-09-01T06:29:42.002Z,4.10
2022-09-01T06:30:26.759Z,3.80
2022-09-01T06:31:00.539Z,3.90
2022-09-01T06:31:39.464Z,3.50
2022-09-01T06:32:13.458Z,3.40
2022-09-01T06:32:49.930Z,4.00
2022-09-01T06:33:25.328Z,3.60
2022-09-01T06:34:00.250Z,4.00
2022-09-01T06:34:34.248Z,3.40
2022-09-01T06:35:09.463Z,4.00
2022-09-01T06:35:47.316Z,4.00
2022-09-01T06:36:26.453Z,3.90
2022-09-01T06:37:00.134Z,3.60
2022-09-01T06:37:35.426Z,4.00
2022-09-01T06:38:10.433Z,4.10
2022-09-01T06:38:43.664Z,4.30
2022-09-01T06:39:20.251Z,4.40
2022-09-01T06:39:53.738Z,3.90
2022-09-01T06:40:28.141Z,4.30
2022-09-01T06:41:08.914Z,3.50
2022-09-01T06:41:42.343Z,3.60
2022-09-01T06:42:16.003Z,3.90
2022-09-01T06:42:52.792Z,3.70
2022-09-01T06:43:25.993Z,3.50
2022-09-01T06:44:01.741Z,3.80
2022-09-01T06:44:40.580Z,3.50
2022-09-01T06:45:15.857Z,3.70
2022-09-01T06:45:54.894Z,3.30
2022-09-01T06:46:29.179Z,4.10
2022-09-01T06:47:02.665Z,3.70
2022-09-01T06:47:36.576Z,3.50
2022-09-01T06:48:13.649Z,3.90
2022-09-01T06:48:48.054Z,4.40
2022-09-01T06:49:23.812Z,4.50
2022-09-01T06:49:59.334Z,4.30
2022-09-01T06:51:32.106Z,3.90
2022-09-01T06:52:05.984Z,3.70
2022-09-01T06:53:35.296Z,3.90
2022-09-01T06:54:11.363Z,3.80
2022-09-01T06:54:49.260Z,3.40
2022-09-01T06:55:23.377Z,4.00
2022-09-01T06:55:56.456Z,3.90
2022-09-01T06:58:21.367Z,3.60
2022-09-01T06:58:55.067Z,3.70
2022-09-01T06:59:34.887Z,4.60
2022-09-01T07:00:26.824Z,3.70
2022-09-01T07:01:00.347Z,4.00
2022-09-01T07:01:34.489Z,4.10
2022-09-01T07:02:13.936Z,3.80
2022-09-01T07:02:57.362Z,3.80
2022-09-01T07:03:32.407Z,3.50
2022-09-01T07:04:12.681Z,3.90
2022-09-01T07:04:46.315Z,3.70
2022-09-01T07:08:07.576Z,4.10
2022-09-01T07:09:47.960Z,4.30
2022-09-01T07:10:27.964Z,4.30
2022-09-01T07:13:11.867Z,3.90
2022-09-01T07:16:30.092Z,4.20
2022-09-01T07:16:32.446Z,3.70
2022-09-01T07:17:27.134Z,4.50
2022-09-01T07:18:00.823Z,4.10
2022-09-01T07:18:34.237Z,4.50
2022-09-01T07:19:13.525Z,4.00
2022-09-01T07:19:48.778Z,3.70
2022-09-01T07:20:25.761Z,3.60
2022-09-01T07:21:36.142Z,3.80
2022-09-01T07:22:09.685Z,4.10
2022-09-01T07:23:05.559Z,3.80
2022-09-01T07:24:07.598Z,4.00
2022-09-01T07:24:33.597Z,3.70
2022-09-01T07:25:13.386Z,3.80
2022-09-01T07:26:01.337Z,4.10
2022-09-01T07:26:46.845Z,4.10
2022-09-01T07:27:35.906Z,4.10
2022-09-01T07:28:17.615Z,3.80
2022-09-01T07:28:51.415Z,3.30
2022-09-01T07:29:35.535Z,3.50
2022-09-01T07:30:09.822Z,4.30
2022-09-01T07:30:48.874Z,4.00
2022-09-01T07:35:11.799Z,4.10
2022-09-01T07:42:57.049Z,3.90
2022-09-01T07:42:58.961Z,3.30
2022-09-01T07:43:06.153Z,3.50
2022-09-01T07:43:42.823Z,3.10
2022-09-01T07:44:16.765Z,3.40
2022-09-01T07:44:53.335Z,3.20
2022-09-01T07:45:27.091Z,3.20
2022-09-01T07:47:52.977Z,3.10
2022-09-01T07:49:02.619Z,3.40
2022-09-01T07:49:50.103Z,3.00
2022-09-01T07:50:40.303Z,3.10
2022-09-01T07:52:08.055Z,3.20
2022-09-01T07:52:43.619Z,3.50
2022-09-01T07:53:26.569Z,3.20
2022-09-01T07:54:02.407Z,3.40
2022-09-01T07:54:37.506Z,3.00
2022-09-01T07:55:15.672Z,2.80
2022-09-01T07:55:52.196Z,3.60
2022-09-01T07:56:26.187Z,3.20
2022-09-01T07:56:59.379Z,3.00
2022-09-01T07:57:32.694Z,3.50
2022-09-01T07:58:05.834Z,2.90
2022-09-01T07:58:42.265Z,3.00
2022-09-01T07:59:15.806Z,3.20
2022-09-01T07:59:50.822Z,3.20
2022-09-01T08:00:24.359Z,3.10
2022-09-01T08:01:09.120Z,3.40
2022-09-01T08:01:43.388Z,3.70
2022-09-01T08:02:18.598Z,3.60
2022-09-01T08:02:56.626Z,2.80
2022-09-01T08:03:31.419Z,3.10
2022-09-01T08:04:04.656Z,3.20
2022-09-01T08:04:40.285Z,3.20
2022-09-01T08:05:18.754Z,2.90
2022-09-01T08:05:57.932Z,3.60
2022-09-01T08:06:37.926Z,3.40
2022-09-01T08:07:52.750Z,2.90
2022-09-01T08:08:29.197Z,3.40
2022-09-01T08:09:02.729Z,3.70
2022-09-01T08:09:43.849Z,3.50
2022-09-01T08:10:54.166Z,3.30
2022-09-01T08:12:28.986Z,3.80
2022-09-01T08:13:02.585Z,3.10
2022-09-01T08:13:41.907Z,3.40
2022-09-01T08:14:18.234Z,3.70
2022-09-01T08:16:40.297Z,3.60
2022-09-01T08:18:18.427Z,3.40
2022-09-01T08:18:51.926Z,3.80
2022-09-01T08:19:25.357Z,3.60
2022-09-01T08:19:58.553Z,3.40
2022-09-01T08:20:35.311Z,3.90
2022-09-01T08:21:10.938Z,3.70
2022-09-01T08:21:44.136Z,3.00
2022-09-01T08:22:17.491Z,3.40
2022-09-01T08:22:50.610Z,3.40
2022-09-01T08:23:26.789Z,2.70
2022-09-01T08:24:00.126Z,3.50
2022-09-01T08:24:33.303Z,3.40
2022-09-01T08:25:08.991Z,3.80
2022-09-01T08:25:44.493Z,3.40
2022-09-01T08:26:20.058Z,2.80
2022-09-01T08:26:53.208Z,3.00
2022-09-01T08:27:26.680Z,2.70
2022-09-01T08:28:00.575Z,2.80
2022-09-01T08:28:34.159Z,2.80
2022-09-01T08:29:07.371Z,3.00
2022-09-01T08:29:40.598Z,3.30
2022-09-01T08:30:14.128Z,3.10
2022-09-01T08:30:52.619Z,3.20
2022-09-01T08:31:30.571Z,3.30